createdAt,value
2023-01-11T00:00:56.790Z,4.50
2023-01-11T00:03:23.926Z,4.50
2023-01-11T00:05:50.820Z,4.50
2023-01-11T00:08:19.365Z,4.50
2023-01-11T00:10:46.274Z,4.50
2023-01-11T00:13:14.257Z,4.50
2023-01-11T00:15:41.228Z,4.50
2023-01-11T00:18:08.496Z,4.50
2023-01-11T00:20:38.579Z,4.50
2023-01-11T00:23:05.540Z,4.40
2023-01-11T00:25:32.662Z,4.40
2023-01-11T00:27:59.615Z,4.40
2023-01-11T00:30:26.558Z,4.40
2023-01-11T00:32:58.678Z,4.30
2023-01-11T00:35:27.038Z,4.30
2023-01-11T00:37:54.626Z,4.40
2023-01-11T00:40:21.954Z,4.40
2023-01-11T00:43:07.429Z,4.40
2023-01-11T00:45:53.281Z,4.50
2023-01-11T00:48:20.200Z,4.50
2023-01-11T00:50:47.116Z,4.40
2023-01-11T00:53:14.626Z,4.40
2023-01-11T00:55:41.807Z,4.30
2023-01-11T00:58:08.703Z,4.20
2023-01-11T01:00:35.875Z,4.20
2023-01-11T01:03:02.952Z,4.20
2023-01-11T01:05:30.010Z,4.20
2023-01-11T01:07:56.953Z,4.20
2023-01-11T01:10:23.913Z,4.20
2023-01-11T01:13:09.626Z,4.20
2023-01-11T01:15:36.704Z,4.20
2023-01-11T01:18:03.943Z,4.30
2023-01-11T01:20:31.060Z,4.30
2023-01-11T01:22:58.237Z,4.40
2023-01-11T01:25:25.532Z,4.40
2023-01-11T01:27:52.533Z,4.40
2023-01-11T01:30:19.694Z,4.40
2023-01-11T01:32:46.648Z,4.40
2023-01-11T01:35:13.574Z,4.40
2023-01-11T01:37:40.486Z,4.40
2023-01-11T01:40:08.021Z,4.40
2023-01-11T01:42:34.973Z,4.40
2023-01-11T01:45:03.499Z,4.30
2023-01-11T01:47:36.384Z,4.20
2023-01-11T01:50:09.938Z,4.20
2023-01-11T01:52:37.026Z,4.20
2023-01-11T01:55:10.820Z,4.20
2023-01-11T01:57:41.280Z,4.20
2023-01-11T02:00:10.250Z,4.10
2023-01-11T02:02:38.962Z,4.10
2023-01-11T02:05:07.634Z,4.00
2023-01-11T02:07:37.722Z,4.00
2023-01-11T02:10:18.658Z,4.00
2023-01-11T02:13:00.700Z,4.10
2023-01-11T02:15:28.992Z,4.10
2023-01-11T02:17:56.045Z,4.10
2023-01-11T02:21:00.365Z,4.10
2023-01-11T02:24:06.060Z,4.20
2023-01-11T02:26:45.267Z,4.30
2023-01-11T02:29:49.874Z,4.40
2023-01-11T02:32:58.636Z,4.40
2023-01-11T02:35:48.596Z,4.40
2023-01-11T02:38:24.338Z,4.40
2023-01-11T02:40:54.605Z,4.40
2023-01-11T02:43:54.997Z,4.40
2023-01-11T02:46:42.913Z,4.40
2023-01-11T02:49:40.904Z,4.50
2023-01-11T02:52:13.777Z,4.50
2023-01-11T02:54:45.661Z,4.60
2023-01-11T02:57:15.410Z,4.50
2023-01-11T02:59:42.371Z,4.60
2023-01-11T03:02:09.893Z,4.60
2023-01-11T03:04:37.868Z,4.60
2023-01-11T03:07:19.662Z,4.60
2023-01-11T03:10:27.088Z,4.60
2023-01-11T03:13:27.890Z,4.60
2023-01-11T03:16:00.960Z,4.60
2023-01-11T03:18:37.010Z,4.60
2023-01-11T03:21:12.690Z,4.50
2023-01-11T03:23:48.165Z,4.50
2023-01-11T03:26:42.125Z,4.60
2023-01-11T03:29:09.139Z,4.50
2023-01-11T03:31:47.451Z,4.50
2023-01-11T03:35:02.239Z,4.50
2023-01-11T03:37:41.990Z,4.50
2023-01-11T03:40:15.083Z,4.50
2023-01-11T03:43:03.936Z,4.50
2023-01-11T03:45:34.825Z,4.50
2023-01-11T03:48:05.881Z,4.50
2023-01-11T03:50:34.639Z,4.50
2023-01-11T03:53:05.701Z,4.50
2023-01-11T03:55:40.632Z,4.50
2023-01-11T03:58:09.223Z,4.60
2023-01-11T04:00:37.605Z,4.50
2023-01-11T04:03:05.767Z,4.50
2023-01-11T04:05:34.496Z,4.50
2023-01-11T04:08:01.474Z,4.40
2023-01-11T04:10:28.482Z,4.40
2023-01-11T04:12:55.451Z,4.40
2023-01-11T04:15:22.629Z,4.30
2023-01-11T04:17:49.546Z,4.30
2023-01-11T04:20:16.605Z,4.30
2023-01-11T04:22:43.546Z,4.30
2023-01-11T04:25:10.574Z,4.30
2023-01-11T04:27:37.520Z,4.20
2023-01-11T04:30:05.060Z,4.20
2023-01-11T04:32:32.073Z,4.10
2023-01-11T04:34:59.050Z,4.10
2023-01-11T04:37:25.985Z,4.00
2023-01-11T04:39:52.942Z,4.00
2023-01-11T04:42:20.197Z,3.90
2023-01-11T04:44:49.302Z,3.90
2023-01-11T04:47:17.621Z,3.80
2023-01-11T04:49:45.567Z,3.80
2023-01-11T04:52:14.003Z,3.80
2023-01-11T04:54:41.470Z,3.80
2023-01-11T04:57:19.361Z,3.70
2023-01-11T04:59:46.915Z,3.70
2023-01-11T05:02:14.717Z,3.70
2023-01-11T05:04:41.719Z,3.70
2023-01-11T05:07:09.805Z,3.70
2023-01-11T05:09:37.048Z,3.70
2023-01-11T05:12:04.282Z,3.70
2023-01-11T05:14:31.231Z,3.60
2023-01-11T05:16:58.984Z,3.70
2023-01-11T05:19:26.507Z,3.70
2023-01-11T05:21:55.858Z,3.70
2023-01-11T05:24:22.802Z,3.70
2023-01-11T05:26:50.414Z,3.70
2023-01-11T05:29:19.403Z,3.70
2023-01-11T05:31:46.620Z,3.70
2023-01-11T05:34:15.184Z,3.60
2023-01-11T05:36:45.476Z,3.60
2023-01-11T05:39:14.155Z,3.70
2023-01-11T05:41:41.235Z,3.70
2023-01-11T05:44:30.034Z,3.70
2023-01-11T05:46:57.023Z,3.70
2023-01-11T05:49:24.118Z,3.60
2023-01-11T05:51:51.200Z,3.60
2023-01-11T05:54:18.189Z,3.60
2023-01-11T05:56:45.361Z,3.60
2023-01-11T05:59:12.696Z,3.60
2023-01-11T06:01:40.037Z,3.60
2023-01-11T06:04:08.616Z,3.60
2023-01-11T06:06:36.039Z,3.60
2023-01-11T06:09:03.185Z,3.60
2023-01-11T06:11:30.213Z,3.60
2023-01-11T06:13:57.176Z,3.60
2023-01-11T06:16:24.458Z,3.60
2023-01-11T06:18:52.949Z,3.60
2023-01-11T06:21:21.187Z,3.60
2023-01-11T06:23:51.093Z,3.60
2023-01-11T06:26:20.580Z,3.60
2023-01-11T06:28:48.029Z,3.60
2023-01-11T06:31:17.341Z,3.60
2023-01-11T06:33:45.196Z,3.60
2023-01-11T06:36:14.308Z,3.60
2023-01-11T06:38:41.673Z,3.50
2023-01-11T06:41:09.549Z,3.50
2023-01-11T06:43:38.620Z,3.50
2023-01-11T06:46:05.871Z,3.50
2023-01-11T06:48:32.971Z,3.50
2023-01-11T06:51:00.380Z,3.50
2023-01-11T06:53:29.211Z,3.50
2023-01-11T06:55:58.608Z,3.50
2023-01-11T06:58:26.661Z,3.50
2023-01-11T07:00:55.580Z,3.40
2023-01-11T07:03:24.513Z,3.40
2023-01-11T07:05:53.428Z,3.40
2023-01-11T07:08:20.720Z,3.40
2023-01-11T07:10:48.233Z,3.40
2023-01-11T07:13:18.553Z,3.30
2023-01-11T07:15:48.535Z,3.30
2023-01-11T07:18:15.824Z,3.30
2023-01-11T07:20:42.969Z,3.30
2023-01-11T07:23:11.157Z,3.30
2023-01-11T07:25:38.544Z,3.30
2023-01-11T07:28:07.145Z,3.30
2023-01-11T07:30:51.928Z,3.30
2023-01-11T07:33:23.754Z,3.30
2023-01-11T07:35:50.979Z,3.30
2023-01-11T07:38:18.141Z,3.30
2023-01-11T07:40:45.296Z,3.30
2023-01-11T07:43:19.047Z,3.40
2023-01-11T07:45:49.919Z,3.40
2023-01-11T07:48:26.582Z,3.40
2023-01-11T07:50:54.800Z,3.40
2023-01-11T07:53:22.456Z,3.40
2023-01-11T07:55:49.510Z,3.40
2023-01-11T07:58:16.880Z,3.50
2023-01-11T08:00:44.300Z,3.50
2023-01-11T08:03:11.550Z,3.50
2023-01-11T08:05:39.285Z,3.50
2023-01-11T08:08:06.719Z,3.60
2023-01-11T08:10:34.452Z,3.60
2023-01-11T08:13:20.279Z,3.60
2023-01-11T08:15:47.400Z,3.70
2023-01-11T08:18:14.486Z,3.70
2023-01-11T08:20:41.757Z,3.80
2023-01-11T08:23:10.450Z,3.80
2023-01-11T08:25:38.182Z,3.90
2023-01-11T08:28:07.704Z,4.00
2023-01-11T08:30:36.344Z,4.20
2023-01-11T08:33:04.444Z,4.30
2023-01-11T08:35:32.364Z,4.50
2023-01-11T08:37:59.318Z,4.70
2023-01-11T08:40:26.284Z,4.80
2023-01-11T08:42:57.013Z,5.00
2023-01-11T08:45:24.604Z,5.10
2023-01-11T08:47:52.385Z,5.40
2023-01-11T08:50:21.379Z,5.40
2023-01-11T08:52:51.026Z,5.60
2023-01-11T08:55:19.152Z,5.70
2023-01-11T08:57:46.432Z,5.80
2023-01-11T09:00:14.432Z,5.80
2023-01-11T09:02:41.532Z,5.80
2023-01-11T09:05:08.962Z,5.70
2023-01-11T09:07:35.945Z,5.60
2023-01-11T09:10:02.999Z,5.30
2023-01-11T09:12:32.618Z,5.30
2023-01-11T09:14:59.868Z,5.10
2023-01-11T09:17:27.067Z,5.00
2023-01-11T09:19:54.085Z,5.00
2023-01-11T09:22:21.220Z,4.90
2023-01-11T09:24:48.224Z,4.80
2023-01-11T09:27:15.407Z,4.70
2023-01-11T09:29:42.417Z,4.70
2023-01-11T09:32:09.435Z,4.60
2023-01-11T09:34:36.353Z,4.60
2023-01-11T09:37:07.112Z,4.50
2023-01-11T09:39:35.324Z,4.50
2023-01-11T09:42:24.605Z,4.40
2023-01-11T09:44:54.353Z,4.40
2023-01-11T09:47:43.775Z,4.40
2023-01-11T09:50:18.801Z,4.40
2023-01-11T09:52:52.814Z,4.40
2023-01-11T09:55:28.796Z,4.30
2023-01-11T09:58:07.459Z,4.30
2023-01-11T10:00:47.672Z,4.20
2023-01-11T10:03:54.461Z,4.20
2023-01-11T10:06:27.112Z,4.30
2023-01-11T10:18:25.384Z,4.10
2023-01-11T10:18:52.931Z,4.20
2023-01-11T10:21:42.754Z,4.20
2023-01-11T10:24:23.359Z,4.30
2023-01-11T10:26:53.063Z,4.30
2023-01-11T10:30:00.845Z,4.30
2023-01-11T10:33:04.362Z,4.30
2023-01-11T10:35:45.065Z,4.30
2023-01-11T10:38:50.232Z,4.30
2023-01-11T10:41:49.029Z,4.40
2023-01-11T10:44:23.639Z,4.40
2023-01-11T10:46:53.723Z,4.40
2023-01-11T10:49:56.902Z,4.50
2023-01-11T10:52:54.771Z,4.50
2023-01-11T10:55:45.857Z,4.50
2023-01-11T10:58:31.603Z,4.50
2023-01-11T11:01:13.061Z,4.50
2023-01-11T11:04:02.046Z,4.50
2023-01-11T11:06:44.963Z,4.60
2023-01-11T11:09:40.623Z,4.60
2023-01-11T11:12:28.111Z,4.80
2023-01-11T11:15:21.422Z,4.80
2023-01-11T11:17:53.139Z,4.80
2023-01-11T11:20:25.690Z,4.70
2023-01-11T11:22:55.261Z,4.70
2023-01-11T11:25:32.136Z,4.60
2023-01-11T11:28:04.432Z,4.60
2023-01-11T11:30:42.504Z,4.50
2023-01-11T11:33:21.287Z,4.50
2023-01-11T11:36:05.859Z,4.40
2023-01-11T11:38:42.067Z,4.40
2023-01-11T11:41:12.377Z,4.40
2023-01-11T11:43:45.179Z,4.40
2023-01-11T11:46:19.512Z,4.40
2023-01-11T11:49:12.535Z,4.40
2023-01-11T11:51:40.879Z,4.40
2023-01-11T11:54:21.297Z,4.40
2023-01-11T11:56:49.022Z,4.40
2023-01-11T11:59:20.331Z,4.40
2023-01-11T12:01:55.193Z,4.40
2023-01-11T12:04:33.905Z,4.40
2023-01-11T12:07:16.217Z,4.50
2023-01-11T12:10:02.818Z,4.40
2023-01-11T12:12:34.371Z,4.40
2023-01-11T12:15:16.692Z,4.50
2023-01-11T12:17:43.801Z,4.50
2023-01-11T12:20:22.998Z,4.50
2023-01-11T12:22:51.222Z,4.50
2023-01-11T12:25:28.987Z,4.50
2023-01-11T12:28:26.048Z,4.50
2023-01-11T12:31:08.649Z,4.60
2023-01-11T12:33:49.600Z,4.50
2023-01-11T12:36:34.022Z,4.50
2023-01-11T12:39:25.355Z,4.50
2023-01-11T12:41:55.399Z,4.50
2023-01-11T12:44:28.295Z,4.50
2023-01-11T12:47:20.801Z,4.50
2023-01-11T12:50:11.797Z,4.50
2023-01-11T12:53:05.469Z,4.50
2023-01-11T12:55:35.352Z,4.50
2023-01-11T12:58:14.162Z,4.50
2023-01-11T13:01:32.837Z,4.50
2023-01-11T13:04:22.557Z,4.40
2023-01-11T13:07:01.898Z,4.50
2023-01-11T13:09:54.273Z,4.40
2023-01-11T13:12:35.018Z,4.50
2023-01-11T13:15:17.136Z,4.50
2023-01-11T13:17:55.880Z,4.40
2023-01-11T13:21:01.162Z,4.40
2023-01-11T13:23:53.399Z,4.40
2023-01-11T13:26:25.658Z,4.40
2023-01-11T13:29:06.644Z,4.40
2023-01-11T13:31:35.821Z,4.40
2023-01-11T13:34:13.608Z,4.50
2023-01-11T13:36:45.769Z,4.50
2023-01-11T13:39:31.594Z,4.50
2023-01-11T13:42:13.815Z,4.50
2023-01-11T13:44:49.503Z,4.50
2023-01-11T13:47:23.107Z,4.50
2023-01-11T13:50:19.344Z,4.50
2023-01-11T13:53:01.866Z,4.40
2023-01-11T13:56:03.148Z,4.40
2023-01-11T13:58:37.296Z,4.30
2023-01-11T14:01:15.271Z,4.30
2023-01-11T14:03:50.428Z,4.20
2023-01-11T14:06:33.068Z,4.20
2023-01-11T14:09:30.378Z,4.20
2023-01-11T14:12:15.828Z,4.20
2023-01-11T14:14:57.667Z,4.20
2023-01-11T14:17:36.577Z,4.10
2023-01-11T14:20:32.724Z,4.10
2023-01-11T14:23:12.278Z,4.10
2023-01-11T14:26:00.186Z,4.10
2023-01-11T14:28:57.927Z,4.10
2023-01-11T14:31:50.868Z,4.00
2023-01-11T14:34:32.930Z,4.00
2023-01-11T14:36:59.835Z,4.00
2023-01-11T14:40:04.435Z,4.00
2023-01-11T14:42:46.928Z,4.00
2023-01-11T14:45:20.253Z,4.00
2023-01-11T14:47:59.293Z,4.00
2023-01-11T14:50:41.939Z,3.90
2023-01-11T14:53:13.133Z,3.90
2023-01-11T14:55:45.479Z,3.90
2023-01-11T14:58:19.635Z,3.90
2023-01-11T15:00:46.732Z,3.90
2023-01-11T15:03:18.160Z,3.80
2023-01-11T15:05:46.536Z,3.80
2023-01-11T15:08:13.443Z,3.80
2023-01-11T15:10:57.147Z,3.80
2023-01-11T15:13:24.023Z,3.80
2023-01-11T15:16:11.267Z,3.80
2023-01-11T15:18:44.999Z,3.80
2023-01-11T15:21:18.746Z,3.80
2023-01-11T15:23:52.232Z,3.80
2023-01-11T15:26:21.346Z,3.80
2023-01-11T15:28:49.992Z,3.70
2023-01-11T15:31:39.381Z,3.70
2023-01-11T15:34:44.723Z,3.70
2023-01-11T15:37:47.990Z,3.70
2023-01-11T15:40:23.908Z,3.70
2023-01-11T15:43:16.079Z,3.70
2023-01-11T15:46:25.986Z,3.70
2023-01-11T15:49:03.399Z,3.70
2023-01-11T15:51:37.887Z,3.70
2023-01-11T15:54:29.375Z,3.70
2023-01-11T15:57:32.888Z,3.70
2023-01-11T16:00:02.880Z,3.70
2023-01-11T16:03:09.532Z,3.70
2023-01-11T16:05:44.348Z,3.70
2023-01-11T16:08:39.398Z,3.70
2023-01-11T16:11:35.270Z,3.70
2023-01-11T16:14:08.316Z,3.80
2023-01-11T16:16:43.876Z,3.80
2023-01-11T16:19:21.793Z,3.80
2023-01-11T16:21:52.391Z,3.80
2023-01-11T16:24:22.171Z,3.80
2023-01-11T16:26:58.854Z,3.70
2023-01-11T16:29:37.300Z,3.70
2023-01-11T16:32:08.175Z,3.80
2023-01-11T16:34:44.147Z,3.80
2023-01-11T16:37:42.622Z,3.70
2023-01-11T16:40:21.621Z,3.80
2023-01-11T16:43:15.954Z,3.80
2023-01-11T16:45:48.482Z,3.80
2023-01-11T16:48:26.027Z,3.80
2023-01-11T16:51:01.946Z,3.80
2023-01-11T16:53:34.136Z,3.70
2023-01-11T16:56:07.030Z,3.80
2023-01-11T16:58:36.389Z,3.80
2023-01-11T17:01:09.180Z,3.80
2023-01-11T17:03:57.530Z,3.80
2023-01-11T17:06:26.076Z,3.80
2023-01-11T17:08:55.721Z,3.80
2023-01-11T17:11:42.445Z,3.70
2023-01-11T17:14:17.154Z,3.70
2023-01-11T17:16:48.118Z,3.60
2023-01-11T17:19:25.147Z,3.60
2023-01-11T17:22:07.576Z,3.60
2023-01-11T17:24:40.885Z,3.50
2023-01-11T17:27:16.141Z,3.50
2023-01-11T17:29:44.635Z,3.40
2023-01-11T17:32:37.269Z,3.50
2023-01-11T17:35:14.371Z,3.50
2023-01-11T17:37:42.235Z,3.40
2023-01-11T17:40:29.817Z,3.40
2023-01-11T17:43:47.554Z,3.40
2023-01-11T17:46:18.648Z,3.40
2023-01-11T17:48:57.229Z,3.40
2023-01-11T17:51:29.612Z,3.30
2023-01-11T17:53:56.612Z,3.30
2023-01-11T17:56:39.000Z,3.30
2023-01-11T17:59:12.023Z,3.30
2023-01-11T18:01:39.676Z,3.30
2023-01-11T18:04:19.764Z,3.30
2023-01-11T18:06:51.115Z,3.30
2023-01-11T18:09:22.412Z,3.20
2023-01-11T18:11:51.309Z,3.20
2023-01-11T18:14:25.449Z,3.20
2023-01-11T18:17:00.979Z,3.20
2023-01-11T18:19:38.227Z,3.10
2023-01-11T18:22:25.183Z,3.10
2023-01-11T18:24:56.007Z,3.10
2023-01-11T18:27:35.253Z,3.10
2023-01-11T18:30:06.690Z,3.10
2023-01-11T18:32:41.634Z,3.00
2023-01-11T18:35:19.077Z,3.00
2023-01-11T18:37:46.874Z,3.00
2023-01-11T18:40:15.176Z,3.00
2023-01-11T18:42:43.857Z,2.90
2023-01-11T18:45:12.337Z,2.90
2023-01-11T18:47:39.656Z,2.90
2023-01-11T18:50:08.423Z,2.90
2023-01-11T18:52:37.179Z,2.90
2023-01-11T18:55:05.372Z,2.90
2023-01-11T18:57:32.603Z,2.90
2023-01-11T18:59:59.542Z,3.00
2023-01-11T19:02:29.477Z,3.00
2023-01-11T19:04:56.939Z,3.00
2023-01-11T19:07:25.922Z,3.00
2023-01-11T19:09:54.992Z,3.00
2023-01-11T19:12:23.212Z,3.00
2023-01-11T19:14:50.192Z,3.00
2023-01-11T19:17:17.317Z,3.00
2023-01-11T19:19:44.223Z,3.00
2023-01-11T19:22:12.068Z,3.00
2023-01-11T19:24:39.825Z,3.00
2023-01-11T19:27:07.085Z,3.00
2023-01-11T19:29:34.107Z,3.00
2023-01-11T19:32:01.075Z,3.00
2023-01-11T19:34:28.060Z,3.00
2023-01-11T19:36:55.145Z,3.00
2023-01-11T19:39:22.280Z,3.00
2023-01-11T19:41:57.819Z,3.00
2023-01-11T19:44:33.275Z,3.00
2023-01-11T19:47:16.973Z,3.00
2023-01-11T19:49:44.372Z,3.00
2023-01-11T19:52:13.865Z,3.00
2023-01-11T19:54:42.572Z,3.00
2023-01-11T19:57:14.672Z,3.00
2023-01-11T19:59:42.379Z,3.00
2023-01-11T20:02:12.070Z,3.00
2023-01-11T20:04:39.300Z,3.00
2023-01-11T20:07:07.521Z,2.90
2023-01-11T20:09:37.634Z,3.00
2023-01-11T20:12:06.297Z,3.00
2023-01-11T20:14:34.075Z,3.00
2023-01-11T20:17:01.105Z,3.00
2023-01-11T20:19:28.274Z,3.00
2023-01-11T20:21:56.119Z,3.00
2023-01-11T20:24:29.711Z,2.90
2023-01-11T20:26:58.712Z,2.90
2023-01-11T20:29:26.198Z,2.90
2023-01-11T20:31:53.185Z,2.90
2023-01-11T20:34:20.800Z,2.90
2023-01-11T20:36:49.087Z,3.00
2023-01-11T20:39:17.711Z,3.00
2023-01-11T20:41:47.745Z,2.90
2023-01-11T20:44:20.184Z,2.90
2023-01-11T20:46:48.377Z,2.90
2023-01-11T20:49:16.334Z,2.90
2023-01-11T20:51:44.342Z,2.90
2023-01-11T20:54:11.448Z,2.90
2023-01-11T20:56:38.865Z,2.90
2023-01-11T20:59:08.129Z,2.90
2023-01-11T21:01:36.452Z,2.90
2023-01-11T21:04:09.211Z,2.90
2023-01-11T21:06:39.781Z,2.90
2023-01-11T21:09:08.244Z,2.90
2023-01-11T21:11:36.142Z,2.90
2023-01-11T21:14:04.293Z,2.90
2023-01-11T21:16:31.850Z,2.90
2023-01-11T21:19:01.195Z,3.00
2023-01-11T21:21:30.921Z,2.90
2023-01-11T21:24:00.867Z,3.00
2023-01-11T21:26:27.870Z,2.90
2023-01-11T21:28:59.878Z,2.90
2023-01-11T21:31:32.221Z,2.90
2023-01-11T21:33:59.878Z,2.90
2023-01-11T21:36:28.947Z,2.90
2023-01-11T21:38:57.677Z,3.00
2023-01-11T21:41:46.684Z,3.00
2023-01-11T21:44:14.586Z,3.00
2023-01-11T21:46:42.354Z,3.00
2023-01-11T21:49:10.427Z,3.00
2023-01-11T21:51:37.962Z,3.00
2023-01-11T21:54:08.180Z,3.00
2023-01-11T21:56:35.529Z,3.00
2023-01-11T21:59:02.711Z,3.00
2023-01-11T22:01:30.260Z,3.00
2023-01-11T22:03:57.883Z,3.00
2023-01-11T22:06:26.601Z,3.00
2023-01-11T22:08:53.704Z,3.00
2023-01-11T22:11:20.641Z,3.00
2023-01-11T22:13:47.829Z,3.00
2023-01-11T22:16:18.086Z,3.00
2023-01-11T22:18:45.896Z,3.00
2023-01-11T22:21:17.194Z,3.10
2023-01-11T22:23:45.650Z,3.10
2023-01-11T22:26:18.012Z,3.10
2023-01-11T22:29:05.308Z,3.10
2023-01-11T22:31:33.744Z,3.10
2023-01-11T22:34:01.449Z,3.10
2023-01-11T22:36:29.492Z,3.10
2023-01-11T22:38:57.090Z,3.10
2023-01-11T22:41:26.056Z,3.20
2023-01-11T22:43:54.103Z,3.20
2023-01-11T22:46:23.811Z,3.20
2023-01-11T22:48:51.704Z,3.20
2023-01-11T22:51:21.714Z,3.30
2023-01-11T22:53:49.728Z,3.30
2023-01-11T22:56:19.328Z,3.30
2023-01-11T22:58:47.892Z,3.30
2023-01-11T23:01:21.420Z,3.30
2023-01-11T23:03:49.214Z,3.40
2023-01-11T23:06:30.038Z,3.40
2023-01-11T23:08:57.986Z,3.40
2023-01-11T23:11:46.673Z,3.50
2023-01-11T23:14:16.124Z,3.50
2023-01-11T23:16:43.993Z,3.50
2023-01-11T23:19:12.751Z,3.50
2023-01-11T23:21:40.790Z,3.50
2023-01-11T23:24:10.418Z,3.50
2023-01-11T23:26:37.757Z,3.50
2023-01-11T23:29:05.238Z,3.50
2023-01-11T23:31:32.602Z,3.40
2023-01-11T23:34:01.166Z,3.40
2023-01-11T23:36:31.278Z,3.40
2023-01-11T23:38:58.700Z,3.40
2023-01-11T23:41:44.288Z,3.40
2023-01-11T23:44:15.486Z,3.50
2023-01-11T23:47:01.865Z,3.40
2023-01-11T23:49:30.000Z,3.50
2023-01-11T23:51:57.327Z,3.50
2023-01-11T23:54:28.313Z,3.50
2023-01-11T23:56:56.215Z,3.50
2023-01-11T23:59:23.303Z,3.50
